createdAt,value
2022-09-15T00:02:14.206Z,98657.54
2022-09-15T00:07:17.273Z,98651.66
2022-09-15T00:12:19.887Z,98645.46
2022-09-15T00:17:22.794Z,98637.59
2022-09-15T00:22:26.391Z,98640.61
2022-09-15T00:27:28.972Z,98647.06
2022-09-15T00:32:31.899Z,98649.91
2022-09-15T00:37:34.489Z,98649.83
2022-09-15T00:42:38.228Z,98641.84
2022-09-15T00:47:40.912Z,98640.67
2022-09-15T00:52:52.990Z,98635.48
2022-09-15T00:58:14.514Z,98635.39
2022-09-15T01:03:18.274Z,98638.70
2022-09-15T01:08:29.810Z,98633.88
2022-09-15T01:13:33.120Z,98634.89
2022-09-15T01:19:02.324Z,98635.76
2022-09-15T01:24:23.427Z,98628.71
2022-09-15T01:29:55.251Z,98627.91
2022-09-15T01:35:02.843Z,98623.85
2022-09-15T01:40:07.093Z,98619.95
2022-09-15T01:45:16.765Z,98615.98
2022-09-15T01:50:22.575Z,98610.18
2022-09-15T01:55:29.712Z,98604.71
2022-09-15T02:00:34.500Z,98602.52
2022-09-15T02:05:42.817Z,98598.05
2022-09-15T02:11:01.289Z,98592.20
2022-09-15T02:16:05.117Z,98592.60
2022-09-15T02:21:23.991Z,98593.43
2022-09-15T02:26:28.946Z,98594.80
2022-09-15T02:31:33.320Z,98590.48
2022-09-15T02:36:36.393Z,98583.79
2022-09-15T02:41:39.719Z,98583.50
2022-09-15T02:46:42.700Z,98579.23
2022-09-15T02:51:45.314Z,98588.36
2022-09-15T02:56:47.887Z,98585.39
2022-09-15T03:01:52.084Z,98584.73
2022-09-15T03:06:54.786Z,98584.70
2022-09-15T03:11:57.442Z,98579.94
2022-09-15T03:17:00.392Z,98580.30
2022-09-15T03:22:03.382Z,98576.11
2022-09-15T03:27:06.161Z,98573.16
2022-09-15T03:32:08.665Z,98572.92
2022-09-15T03:37:11.862Z,98576.95
2022-09-15T03:42:14.767Z,98577.65
2022-09-15T03:47:17.514Z,98573.60
2022-09-15T03:52:20.023Z,98565.11
2022-09-15T03:57:22.545Z,98565.14
2022-09-15T04:02:25.197Z,98564.55
2022-09-15T04:07:27.841Z,98562.56
2022-09-15T04:12:32.704Z,98562.66
2022-09-15T04:17:35.765Z,98560.19
2022-09-15T04:22:38.509Z,98561.85
2022-09-15T04:27:41.209Z,98557.75
2022-09-15T04:32:43.738Z,98554.33
2022-09-15T04:37:46.482Z,98556.25
2022-09-15T04:42:49.036Z,98555.82
2022-09-15T04:47:53.483Z,98560.20
2022-09-15T04:52:56.124Z,98561.36
2022-09-15T04:57:58.740Z,98561.84
2022-09-15T05:03:01.323Z,98561.46
2022-09-15T05:08:04.259Z,98557.36
2022-09-15T05:13:06.943Z,98559.83
2022-09-15T05:18:09.481Z,98562.52
2022-09-15T05:23:12.234Z,98556.36
2022-09-15T05:28:14.854Z,98556.12
2022-09-15T05:33:18.048Z,98553.64
2022-09-15T05:38:20.743Z,98549.41
2022-09-15T05:43:23.271Z,98546.55
2022-09-15T05:48:26.179Z,98544.69
2022-09-15T05:53:29.252Z,98554.22
2022-09-15T05:58:32.472Z,98549.84
2022-09-15T06:03:35.985Z,98547.42
2022-09-15T06:08:48.225Z,98543.46
2022-09-15T06:13:51.723Z,98540.55
2022-09-15T06:18:54.361Z,98537.73
2022-09-15T06:23:58.919Z,98537.42
2022-09-15T06:29:03.010Z,98534.15
2022-09-15T06:34:11.843Z,98528.81
2022-09-15T06:39:14.412Z,98530.95
2022-09-15T06:44:17.570Z,98526.02
2022-09-15T06:49:20.871Z,98534.73
2022-09-15T06:54:23.492Z,98531.89
2022-09-15T06:59:26.259Z,98535.50
2022-09-15T07:04:37.154Z,98532.05
2022-09-15T07:09:41.352Z,98536.78
2022-09-15T07:14:44.397Z,98538.19
2022-09-15T07:19:46.973Z,98546.52
2022-09-15T07:24:49.550Z,98545.72
2022-09-15T07:29:52.390Z,98544.20
2022-09-15T07:34:58.254Z,98540.29
2022-09-15T07:40:01.553Z,98541.00
2022-09-15T07:45:05.256Z,98539.14
2022-09-15T07:50:08.592Z,98534.26
2022-09-15T07:55:11.415Z,98537.26
2022-09-15T08:00:15.577Z,98530.80
2022-09-15T08:05:18.407Z,98529.33
2022-09-15T08:10:21.467Z,98528.32
2022-09-15T08:15:24.621Z,98520.72
2022-09-15T08:20:27.271Z,98510.52
2022-09-15T08:25:30.586Z,98510.49
2022-09-15T08:30:33.120Z,98507.85
2022-09-15T08:35:37.045Z,98505.30
2022-09-15T08:40:44.054Z,98511.21
2022-09-15T08:45:53.569Z,98502.48
2022-09-15T08:50:58.788Z,98507.23
2022-09-15T08:56:09.319Z,98504.73
2022-09-15T09:01:31.369Z,98495.72
2022-09-15T09:06:34.063Z,98502.91
2022-09-15T09:11:36.608Z,98507.88
2022-09-15T09:16:41.961Z,98513.73
2022-09-15T09:21:48.285Z,98505.02
2022-09-15T09:26:54.556Z,98497.38
2022-09-15T09:31:58.630Z,98495.45
2022-09-15T09:37:08.798Z,98486.65
2022-09-15T09:42:14.827Z,98495.96
2022-09-15T09:47:18.174Z,98493.48
2022-09-15T09:52:40.963Z,98483.55
2022-09-15T09:57:43.866Z,98484.35
2022-09-15T10:02:47.007Z,98482.69
2022-09-15T10:07:49.667Z,98490.66
2022-09-15T10:12:55.981Z,98490.65
2022-09-15T10:17:58.578Z,98489.56
2022-09-15T10:23:02.991Z,98492.15
2022-09-15T10:28:08.412Z,98490.75
2022-09-15T10:33:27.605Z,98498.89
2022-09-15T10:38:30.094Z,98501.65
2022-09-15T10:43:52.938Z,98496.27
2022-09-15T10:49:15.988Z,98499.62
2022-09-15T10:54:28.412Z,98508.58
2022-09-15T10:59:44.394Z,98501.15
2022-09-15T11:04:47.004Z,98492.95
2022-09-15T11:10:09.832Z,98496.42
2022-09-15T11:15:32.264Z,98492.80
2022-09-15T11:20:59.139Z,98489.52
2022-09-15T11:26:06.531Z,98490.91
2022-09-15T11:31:24.554Z,98485.75
2022-09-15T11:36:30.777Z,98488.05
2022-09-15T11:41:41.975Z,98486.85
2022-09-15T11:46:53.745Z,98492.44
2022-09-15T11:51:59.074Z,98491.62
2022-09-15T11:57:02.218Z,98494.21
2022-09-15T12:02:17.350Z,98490.36
2022-09-15T12:07:23.970Z,98484.21
2022-09-15T12:12:30.635Z,98483.86
2022-09-15T12:17:40.421Z,98480.86
2022-09-15T12:22:47.033Z,98480.59
2022-09-15T12:28:08.394Z,98478.02
2022-09-15T12:33:29.574Z,98480.66
2022-09-15T12:38:32.167Z,98469.91
2022-09-15T12:43:34.893Z,98468.86
2022-09-15T12:48:38.096Z,98465.17
2022-09-15T12:53:49.754Z,98468.69
2022-09-15T12:58:53.305Z,98464.96
2022-09-15T13:03:59.355Z,98458.30
2022-09-15T13:09:02.309Z,98457.09
2022-09-15T13:14:07.622Z,98454.10
2022-09-15T13:19:12.610Z,98454.70
2022-09-15T13:24:21.644Z,98450.66
2022-09-15T13:29:24.644Z,98456.02
2022-09-15T13:35:10.036Z,98456.27
2022-09-15T13:40:34.520Z,98453.01
2022-09-15T13:45:40.279Z,98447.59
2022-09-15T13:50:51.553Z,98450.45
2022-09-15T13:55:58.441Z,98439.08
2022-09-15T14:01:03.411Z,98445.69
2022-09-15T14:06:26.436Z,98439.17
2022-09-15T14:11:30.854Z,98443.31
2022-09-15T14:16:34.987Z,98444.83
2022-09-15T14:21:47.768Z,98443.13
2022-09-15T14:26:50.466Z,98448.45
2022-09-15T14:31:54.223Z,98456.76
2022-09-15T14:37:07.664Z,98453.60
2022-09-15T14:42:30.711Z,98457.13
2022-09-15T14:47:33.625Z,98461.07
2022-09-15T14:52:39.303Z,98473.37
2022-09-15T14:57:46.400Z,98484.76
2022-09-15T15:03:14.748Z,98478.38
2022-09-15T15:08:30.299Z,98484.21
2022-09-15T15:13:33.305Z,98486.88
2022-09-15T15:18:35.904Z,98487.84
2022-09-15T15:23:46.874Z,98483.63
2022-09-15T15:28:49.776Z,98473.89
2022-09-15T15:34:00.390Z,98471.48
2022-09-15T15:39:05.278Z,98472.20
2022-09-15T15:44:25.895Z,98464.35
2022-09-15T15:49:29.813Z,98464.72
2022-09-15T15:54:33.662Z,98465.08
2022-09-15T15:59:36.192Z,98473.95
2022-09-15T16:04:38.804Z,98469.46
2022-09-15T16:09:41.400Z,98474.55
2022-09-15T16:14:44.100Z,98479.46
2022-09-15T16:19:47.363Z,98476.95
2022-09-15T16:24:50.116Z,98469.94
2022-09-15T16:29:53.153Z,98474.14
2022-09-15T16:34:55.726Z,98479.88
2022-09-15T16:39:58.280Z,98479.79
2022-09-15T16:45:01.958Z,98480.38
2022-09-15T16:50:04.859Z,98476.89
2022-09-15T16:55:17.372Z,98475.91
2022-09-15T17:00:20.000Z,98482.17
2022-09-15T17:05:31.153Z,98483.55
2022-09-15T17:10:34.637Z,98487.29
2022-09-15T17:15:38.755Z,98488.20
2022-09-15T17:20:42.531Z,98482.54
2022-09-15T17:25:51.784Z,98487.86
2022-09-15T17:30:58.837Z,98491.33
2022-09-15T17:36:01.560Z,98489.86
2022-09-15T17:41:04.409Z,98496.77
2022-09-15T17:46:07.964Z,98499.31
2022-09-15T17:51:14.304Z,98502.48
2022-09-15T17:56:17.049Z,98500.08
2022-09-15T18:01:20.585Z,98496.45
2022-09-15T18:06:23.141Z,98495.97
2022-09-15T18:11:27.263Z,98500.64
2022-09-15T18:16:30.246Z,98506.81
2022-09-15T18:21:32.855Z,98504.23
2022-09-15T18:26:35.776Z,98506.67
2022-09-15T18:31:38.464Z,98510.70
2022-09-15T18:36:41.250Z,98511.61
2022-09-15T18:41:43.846Z,98511.45
2022-09-15T18:46:46.462Z,98509.41
2022-09-15T18:51:52.356Z,98510.63
2022-09-15T18:56:55.131Z,98513.54
2022-09-15T19:01:57.748Z,98513.18
2022-09-15T19:07:00.531Z,98514.19
2022-09-15T19:12:03.916Z,98514.30
2022-09-15T19:17:06.581Z,98514.14
2022-09-15T19:22:09.697Z,98514.55
2022-09-15T19:27:12.275Z,98512.02
2022-09-15T19:32:18.169Z,98513.34
2022-09-15T19:37:21.951Z,98514.80
2022-09-15T19:42:24.520Z,98517.91
2022-09-15T19:47:27.145Z,98516.61
2022-09-15T19:52:29.742Z,98513.55
2022-09-15T19:57:32.521Z,98519.81
2022-09-15T20:02:35.169Z,98524.02
2022-09-15T20:07:37.840Z,98530.94
2022-09-15T20:12:40.591Z,98528.98
2022-09-15T20:17:43.235Z,98525.23
2022-09-15T20:22:46.411Z,98523.73
2022-09-15T20:27:49.595Z,98527.09
2022-09-15T20:32:52.192Z,98525.15
2022-09-15T20:37:54.808Z,98522.67
2022-09-15T20:42:58.069Z,98525.34
2022-09-15T20:48:00.660Z,98523.54
2022-09-15T20:53:03.265Z,98523.17
2022-09-15T20:58:08.112Z,98530.35
2022-09-15T21:03:10.711Z,98528.12
2022-09-15T21:08:13.549Z,98528.38
2022-09-15T21:13:16.307Z,98530.04
2022-09-15T21:18:19.732Z,98523.98
2022-09-15T21:23:22.452Z,98519.44
2022-09-15T21:28:25.190Z,98523.48
2022-09-15T21:33:28.852Z,98525.98
2022-09-15T21:38:31.554Z,98527.04
2022-09-15T21:43:36.202Z,98521.88
2022-09-15T21:48:38.899Z,98519.81
2022-09-15T21:53:42.627Z,98520.02
2022-09-15T21:58:45.242Z,98519.16
2022-09-15T22:03:49.460Z,98517.98
2022-09-15T22:08:52.053Z,98519.52
2022-09-15T22:13:55.876Z,98514.98
2022-09-15T22:18:59.970Z,98511.34
2022-09-15T22:24:04.655Z,98507.77
2022-09-15T22:29:07.275Z,98504.61
2022-09-15T22:34:09.950Z,98504.04
2022-09-15T22:39:12.890Z,98499.50
2022-09-15T22:44:19.814Z,98497.46
2022-09-15T22:49:22.656Z,98502.65
2022-09-15T22:54:25.202Z,98507.19
2022-09-15T22:59:27.911Z,98499.85
2022-09-15T23:04:30.656Z,98486.58
2022-09-15T23:09:33.351Z,98490.55
2022-09-15T23:14:37.075Z,98496.02
2022-09-15T23:19:40.269Z,98496.84
2022-09-15T23:24:42.883Z,98497.27
2022-09-15T23:29:45.583Z,98494.60
2022-09-15T23:34:49.014Z,98497.58
2022-09-15T23:39:52.565Z,98505.17
2022-09-15T23:44:55.218Z,98511.11
2022-09-15T23:49:57.820Z,98511.90
2022-09-15T23:55:00.345Z,98511.55
